createdAt,value
2022-09-04T00:02:51.490Z,7.50
2022-09-04T00:05:42.320Z,1.00
2022-09-04T00:08:50.567Z,1.00
2022-09-04T00:11:50.311Z,1.00
2022-09-04T00:14:41.405Z,1.00
2022-09-04T00:17:19.752Z,1.00
2022-09-04T00:19:59.604Z,2.70
2022-09-04T00:23:15.961Z,1.30
2022-09-04T00:26:01.515Z,8.10
2022-09-04T00:28:37.274Z,7.50
2022-09-04T00:31:29.985Z,17.40
2022-09-04T00:34:07.457Z,31.00
2022-09-04T00:36:50.290Z,38.40
2022-09-04T00:39:35.817Z,71.10
2022-09-04T00:42:17.739Z,88.60
2022-09-04T00:45:01.011Z,84.40
2022-09-04T00:47:45.994Z,85.70
2022-09-04T00:50:37.209Z,68.30
2022-09-04T00:53:40.831Z,68.00
2022-09-04T00:56:36.775Z,60.20
2022-09-04T00:59:45.237Z,39.80
2022-09-04T01:02:31.894Z,14.90
2022-09-04T01:05:24.267Z,9.70
2022-09-04T01:08:23.873Z,1.00
2022-09-04T01:10:56.883Z,1.00
2022-09-04T01:13:54.127Z,1.00
2022-09-04T01:16:30.172Z,1.00
2022-09-04T01:19:15.991Z,1.00
2022-09-04T01:22:21.321Z,1.00
2022-09-04T01:25:17.443Z,1.30
2022-09-04T01:28:05.693Z,2.40
2022-09-04T01:30:43.615Z,6.00
2022-09-04T01:33:24.407Z,6.40
2022-09-04T01:35:57.425Z,14.10
2022-09-04T01:39:00.117Z,12.50
2022-09-04T01:41:38.456Z,20.70
2022-09-04T01:44:08.242Z,22.20
2022-09-04T01:46:58.455Z,24.50
2022-09-04T01:49:49.467Z,17.40
2022-09-04T01:52:48.577Z,21.90
2022-09-04T01:55:33.941Z,25.80
2022-09-04T01:58:15.305Z,30.00
2022-09-04T02:01:21.110Z,23.70
2022-09-04T02:04:08.196Z,18.20
2022-09-04T02:06:47.161Z,26.20
2022-09-04T02:09:41.323Z,23.90
2022-09-04T02:12:27.533Z,24.50
2022-09-04T02:15:12.850Z,27.40
2022-09-04T02:17:48.731Z,25.60
2022-09-04T02:20:24.097Z,43.80
2022-09-04T02:23:15.579Z,44.50
2022-09-04T02:26:13.572Z,45.70
2022-09-04T02:28:52.492Z,43.40
2022-09-04T02:31:49.340Z,43.60
2022-09-04T02:34:28.582Z,53.80
2022-09-04T02:37:40.506Z,52.80
2022-09-04T02:40:31.439Z,89.30
2022-09-04T02:43:22.463Z,99.90
2022-09-04T02:46:12.189Z,99.90
2022-09-04T02:49:24.552Z,99.90
2022-09-04T02:52:35.222Z,99.90
2022-09-04T02:55:18.027Z,96.60
2022-09-04T02:58:07.981Z,99.90
2022-09-04T03:01:15.102Z,99.90
2022-09-04T03:03:48.258Z,99.90
2022-09-04T03:06:40.777Z,94.80
2022-09-04T03:09:15.313Z,90.20
2022-09-04T03:12:26.363Z,98.30
2022-09-04T03:15:12.057Z,99.90
2022-09-04T03:17:54.101Z,95.80
2022-09-04T03:20:30.400Z,88.20
2022-09-04T03:23:03.268Z,68.00
2022-09-04T03:25:45.062Z,46.50
2022-09-04T03:28:34.265Z,40.60
2022-09-04T03:31:22.380Z,41.30
2022-09-04T03:34:17.251Z,44.00
2022-09-04T03:37:00.025Z,45.00
2022-09-04T03:39:40.618Z,37.70
2022-09-04T03:42:10.804Z,33.80
2022-09-04T03:45:12.956Z,46.20
2022-09-04T03:48:03.227Z,30.00
2022-09-04T03:50:44.777Z,19.50
2022-09-04T03:53:21.335Z,19.40
2022-09-04T03:56:19.187Z,13.50
2022-09-04T03:58:59.662Z,16.70
2022-09-04T04:01:58.351Z,13.50
2022-09-04T04:04:52.365Z,14.30
2022-09-04T04:07:37.880Z,13.00
2022-09-04T04:10:18.788Z,10.90
2022-09-04T04:12:55.234Z,13.80
2022-09-04T04:15:37.447Z,24.50
2022-09-04T04:18:13.998Z,29.40
2022-09-04T04:20:56.054Z,28.90
2022-09-04T04:23:47.110Z,30.00
2022-09-04T04:26:26.154Z,33.80
2022-09-04T04:29:28.743Z,32.70
2022-09-04T04:32:24.464Z,27.00
2022-09-04T04:35:16.751Z,15.20
2022-09-04T04:38:03.715Z,1.00
2022-09-04T04:40:49.102Z,8.80
2022-09-04T04:43:21.736Z,7.80
2022-09-04T04:45:55.028Z,10.20
2022-09-04T04:48:49.059Z,17.60
2022-09-04T04:51:44.668Z,25.00
2022-09-04T04:54:23.985Z,33.60
2022-09-04T04:56:58.071Z,40.40
2022-09-04T04:59:27.877Z,37.50
2022-09-04T05:02:31.219Z,30.00
2022-09-04T05:05:41.843Z,25.30
2022-09-04T05:08:31.597Z,24.80
2022-09-04T05:11:25.957Z,24.10
2022-09-04T05:14:14.271Z,8.60
2022-09-04T05:16:51.052Z,19.80
2022-09-04T05:19:20.479Z,8.80
2022-09-04T05:22:12.993Z,9.90
2022-09-04T05:24:55.915Z,1.00
2022-09-04T05:27:23.032Z,1.00
2022-09-04T05:30:10.659Z,2.90
2022-09-04T05:32:59.821Z,1.00
2022-09-04T05:36:04.031Z,11.90
2022-09-04T05:38:57.363Z,17.30
2022-09-04T05:41:52.133Z,6.00
2022-09-04T05:44:44.590Z,1.00
2022-09-04T05:47:14.268Z,4.10
2022-09-04T05:49:44.056Z,2.40
2022-09-04T05:52:36.623Z,1.00
2022-09-04T05:55:03.535Z,1.00
2022-09-04T05:57:42.074Z,4.00
2022-09-04T06:00:11.795Z,1.00
2022-09-04T06:03:15.829Z,1.00
2022-09-04T06:06:08.916Z,1.00
2022-09-04T06:08:47.948Z,1.00
2022-09-04T06:11:50.895Z,1.00
2022-09-04T06:14:30.702Z,1.00
2022-09-04T06:17:06.648Z,1.00
2022-09-04T06:19:54.912Z,1.00
2022-09-04T06:22:28.118Z,1.00
2022-09-04T06:24:55.084Z,1.00
2022-09-04T06:27:49.897Z,1.00
2022-09-04T06:30:18.026Z,1.00
2022-09-04T06:33:02.993Z,1.00
2022-09-04T06:35:54.440Z,1.00
2022-09-04T06:38:52.345Z,1.00
2022-09-04T06:41:47.946Z,1.00
2022-09-04T06:44:23.679Z,1.00
2022-09-04T06:47:18.063Z,1.00
2022-09-04T06:50:06.089Z,1.00
2022-09-04T06:52:47.564Z,1.00
2022-09-04T06:55:24.134Z,1.00
2022-09-04T06:58:03.468Z,1.00
2022-09-04T07:00:53.585Z,1.00
2022-09-04T07:03:27.554Z,1.00
2022-09-04T07:06:02.443Z,1.00
2022-09-04T07:08:47.964Z,1.00
2022-09-04T07:11:17.652Z,1.00
2022-09-04T07:14:03.462Z,1.00
2022-09-04T07:16:42.120Z,1.00
2022-09-04T07:19:28.710Z,1.00
2022-09-04T07:22:23.259Z,1.00
2022-09-04T07:25:11.582Z,1.00
2022-09-04T07:28:18.870Z,1.00
2022-09-04T07:30:57.074Z,1.00
2022-09-04T07:33:39.304Z,1.00
2022-09-04T07:36:11.324Z,1.00
2022-09-04T07:38:50.515Z,1.00
2022-09-04T07:41:49.461Z,2.60
2022-09-04T07:44:47.027Z,1.00
2022-09-04T07:47:26.854Z,1.00
2022-09-04T07:50:14.727Z,1.00
2022-09-04T07:53:09.500Z,1.00
2022-09-04T07:55:42.791Z,1.00
2022-09-04T07:58:21.769Z,1.00
2022-09-04T08:01:16.499Z,1.00
2022-09-04T08:04:11.158Z,1.00
2022-09-04T08:06:56.324Z,1.00
2022-09-04T08:09:28.861Z,1.00
2022-09-04T08:12:33.242Z,1.00
2022-09-04T08:15:09.728Z,1.00
2022-09-04T08:18:01.627Z,1.00
2022-09-04T08:21:02.632Z,1.00
2022-09-04T08:23:56.948Z,1.00
2022-09-04T08:26:54.583Z,1.00
2022-09-04T08:29:42.329Z,1.00
2022-09-04T08:32:28.588Z,1.00
2022-09-04T08:35:37.109Z,1.00
2022-09-04T08:38:13.379Z,1.00
2022-09-04T08:40:50.226Z,1.00
2022-09-04T08:43:40.442Z,1.00
2022-09-04T08:46:16.381Z,1.00
2022-09-04T08:49:11.811Z,1.00
2022-09-04T08:52:16.251Z,1.00
2022-09-04T08:55:05.852Z,1.00
2022-09-04T08:57:50.877Z,99.90
2022-09-04T09:00:21.275Z,99.90
2022-09-04T09:03:13.242Z,99.90
2022-09-04T09:06:06.867Z,8.30
2022-09-04T09:09:04.572Z,1.00
2022-09-04T09:11:59.418Z,1.00
2022-09-04T09:14:59.702Z,99.90
2022-09-04T09:17:44.299Z,1.00
2022-09-04T09:20:45.418Z,1.00
2022-09-04T09:23:25.629Z,99.90
2022-09-04T09:25:55.901Z,1.00
2022-09-04T09:28:41.139Z,1.00
2022-09-04T09:31:10.865Z,1.00
2022-09-04T09:33:40.694Z,99.90
2022-09-04T09:36:26.117Z,1.00
2022-09-04T09:39:44.174Z,1.00
2022-09-04T09:42:48.474Z,99.90
2022-09-04T09:45:36.065Z,28.10
2022-09-04T09:48:41.826Z,1.00
2022-09-04T09:51:28.406Z,99.90
2022-09-04T09:54:29.493Z,64.30
2022-09-04T09:57:34.506Z,1.00
2022-09-04T10:00:13.975Z,1.00
2022-09-04T10:03:19.573Z,1.00
2022-09-04T10:05:57.240Z,1.00
2022-09-04T10:08:42.438Z,1.00
2022-09-04T10:11:27.652Z,1.00
2022-09-04T10:14:03.638Z,1.00
2022-09-04T10:16:48.734Z,1.00
2022-09-04T10:19:31.382Z,1.00
2022-09-04T10:22:20.187Z,1.00
2022-09-04T10:25:06.096Z,1.00
2022-09-04T10:28:02.120Z,1.00
2022-09-04T10:30:54.893Z,1.00
2022-09-04T10:33:48.261Z,1.00
2022-09-04T10:36:40.869Z,1.00
2022-09-04T10:39:39.224Z,1.00
2022-09-04T10:42:25.742Z,1.00
2022-09-04T10:45:03.751Z,1.00
2022-09-04T10:47:45.453Z,1.00
2022-09-04T10:50:21.312Z,1.00
2022-09-04T10:53:09.491Z,1.00
2022-09-04T10:56:05.653Z,1.00
2022-09-04T10:58:55.318Z,1.00
2022-09-04T11:01:31.160Z,1.00
2022-09-04T11:04:01.616Z,1.00
2022-09-04T11:06:38.043Z,1.00
2022-09-04T11:09:40.555Z,1.00
2022-09-04T11:12:47.626Z,1.00
2022-09-04T11:15:38.127Z,1.00
2022-09-04T11:18:19.304Z,1.00
2022-09-04T11:21:14.349Z,1.00
2022-09-04T11:24:13.452Z,1.00
2022-09-04T11:27:08.023Z,1.00
2022-09-04T11:29:50.208Z,1.00
2022-09-04T11:32:21.308Z,1.00
2022-09-04T11:35:09.031Z,1.00
2022-09-04T11:37:52.713Z,1.00
2022-09-04T11:40:37.847Z,1.00
2022-09-04T11:43:32.758Z,1.00
2022-09-04T11:46:11.710Z,1.00
2022-09-04T11:49:16.258Z,1.00
2022-09-04T11:52:02.317Z,1.00
2022-09-04T11:55:02.969Z,1.00
2022-09-04T11:57:57.592Z,1.00
2022-09-04T12:00:24.717Z,1.00
2022-09-04T12:03:26.396Z,1.00
2022-09-04T12:06:06.028Z,1.00
2022-09-04T12:08:44.929Z,1.00
2022-09-04T12:11:14.963Z,1.00
2022-09-04T12:14:29.042Z,1.00
2022-09-04T12:17:19.920Z,1.00
2022-09-04T12:20:08.016Z,1.00
2022-09-04T12:23:02.922Z,1.00
2022-09-04T12:25:32.737Z,1.00
2022-09-04T12:28:37.941Z,1.00
2022-09-04T12:31:10.979Z,1.00
2022-09-04T12:34:14.731Z,1.00
2022-09-04T12:36:59.380Z,1.00
2022-09-04T12:39:48.082Z,1.00
2022-09-04T12:42:21.062Z,1.00
2022-09-04T12:45:09.172Z,1.00
2022-09-04T12:47:58.119Z,1.00
2022-09-04T12:50:55.876Z,1.00
2022-09-04T12:53:44.540Z,1.00
2022-09-04T12:56:17.107Z,1.00
2022-09-04T12:59:03.496Z,1.00
2022-09-04T13:01:50.719Z,1.00
2022-09-04T13:04:27.892Z,1.00
2022-09-04T13:07:07.084Z,1.00
2022-09-04T13:10:14.486Z,1.00
2022-09-04T13:13:15.504Z,1.00
2022-09-04T13:16:21.603Z,1.00
2022-09-04T13:19:15.061Z,1.00
2022-09-04T13:21:57.683Z,1.00
2022-09-04T13:24:51.421Z,1.00
2022-09-04T13:27:48.262Z,1.00
2022-09-04T13:30:24.648Z,1.00
2022-09-04T13:33:11.368Z,1.00
2022-09-04T13:36:08.168Z,1.00
2022-09-04T13:39:13.849Z,1.00
2022-09-04T13:42:01.292Z,1.00
2022-09-04T13:44:54.441Z,1.00
2022-09-04T13:47:32.977Z,1.00
2022-09-04T13:50:17.357Z,1.00
2022-09-04T13:52:58.386Z,1.00
2022-09-04T13:55:35.036Z,1.00
2022-09-04T13:58:14.927Z,1.00
2022-09-04T14:00:53.108Z,1.00
2022-09-04T14:03:54.273Z,1.00
2022-09-04T14:06:24.784Z,1.00
2022-09-04T14:09:05.298Z,1.00
2022-09-04T14:11:51.674Z,1.00
2022-09-04T14:14:24.393Z,1.00
2022-09-04T14:16:55.027Z,1.00
2022-09-04T14:19:32.656Z,1.00
2022-09-04T14:22:11.864Z,1.00
2022-09-04T14:24:57.778Z,1.00
2022-09-04T14:27:46.244Z,1.00
2022-09-04T14:30:23.802Z,1.00
2022-09-04T14:33:19.231Z,1.00
2022-09-04T14:36:02.939Z,1.00
2022-09-04T14:38:54.796Z,1.00
2022-09-04T14:41:46.369Z,1.00
2022-09-04T14:44:39.255Z,1.00
2022-09-04T14:47:27.490Z,1.00
2022-09-04T14:49:56.391Z,1.00
2022-09-04T14:52:36.677Z,1.00
2022-09-04T14:55:08.925Z,1.00
2022-09-04T14:58:04.791Z,1.00
2022-09-04T15:00:34.787Z,1.00
2022-09-04T15:03:23.143Z,1.00
2022-09-04T15:05:56.865Z,1.00
2022-09-04T15:08:40.093Z,1.00
2022-09-04T15:11:31.193Z,1.00
2022-09-04T15:14:20.220Z,1.00
2022-09-04T15:16:50.771Z,1.00
2022-09-04T15:19:41.100Z,1.00
2022-09-04T15:22:43.103Z,1.00
2022-09-04T15:25:19.346Z,1.00
2022-09-04T15:27:54.924Z,1.00
2022-09-04T15:30:24.772Z,1.00
2022-09-04T15:33:18.307Z,1.00
2022-09-04T15:35:53.345Z,1.00
2022-09-04T15:38:25.473Z,1.00
2022-09-04T15:41:15.470Z,1.00
2022-09-04T15:43:43.633Z,1.00
2022-09-04T15:46:25.630Z,1.00
2022-09-04T15:49:14.192Z,1.00
2022-09-04T15:51:57.139Z,1.00
2022-09-04T15:54:28.924Z,1.00
2022-09-04T15:57:01.739Z,1.00
2022-09-04T16:00:19.293Z,1.00
2022-09-04T16:02:50.467Z,1.00
2022-09-04T16:05:28.203Z,1.00
2022-09-04T16:08:07.152Z,1.00
2022-09-04T16:11:01.688Z,1.00
2022-09-04T16:13:50.653Z,1.00
2022-09-04T16:16:42.312Z,1.00
2022-09-04T16:19:42.216Z,1.00
2022-09-04T16:22:40.173Z,1.00
2022-09-04T16:25:23.525Z,1.00
2022-09-04T16:28:02.511Z,1.00
2022-09-04T16:30:56.096Z,1.00
2022-09-04T16:33:44.864Z,1.00
2022-09-04T16:36:18.642Z,1.00
2022-09-04T16:38:48.321Z,1.00
2022-09-04T16:41:25.805Z,1.00
2022-09-04T16:44:13.974Z,1.00
2022-09-04T16:47:02.976Z,1.00
2022-09-04T16:49:41.055Z,1.00
2022-09-04T16:52:21.317Z,1.00
2022-09-04T16:54:56.427Z,1.00
2022-09-04T16:57:33.433Z,1.00
2022-09-04T17:00:08.281Z,1.00
2022-09-04T17:02:51.272Z,1.00
2022-09-04T17:05:35.195Z,1.00
2022-09-04T17:08:27.746Z,1.00
2022-09-04T17:11:16.995Z,1.00
2022-09-04T17:14:15.542Z,1.00
2022-09-04T17:17:12.502Z,1.00
2022-09-04T17:20:12.390Z,1.00
2022-09-04T17:28:34.044Z,1.00
2022-09-04T17:29:13.397Z,1.00
2022-09-04T17:29:36.256Z,1.00
2022-09-04T17:33:17.828Z,1.00
2022-09-04T17:40:39.643Z,1.00
2022-09-04T17:40:53.756Z,1.00
2022-09-04T17:41:54.756Z,1.00
2022-09-04T17:44:38.668Z,1.00
2022-09-04T17:47:20.722Z,1.00
2022-09-04T17:49:53.367Z,1.00
2022-09-04T17:52:27.056Z,1.00
2022-09-04T17:55:00.865Z,1.00
2022-09-04T17:57:43.724Z,1.00
2022-09-04T18:00:20.644Z,1.00
2022-09-04T18:02:59.609Z,1.00
2022-09-04T18:05:33.588Z,1.00
2022-09-04T18:08:18.590Z,1.00
2022-09-04T18:11:12.224Z,1.00
2022-09-04T18:13:44.970Z,1.00
2022-09-04T18:16:15.016Z,1.00
2022-09-04T18:18:55.752Z,1.00
2022-09-04T18:21:37.218Z,1.00
2022-09-04T18:24:18.353Z,1.00
2022-09-04T18:26:51.165Z,1.00
2022-09-04T18:30:57.260Z,1.00
2022-09-04T18:37:17.799Z,1.00
2022-09-04T18:37:23.209Z,1.00
2022-09-04T18:39:08.246Z,1.00
2022-09-04T18:47:43.375Z,1.00
2022-09-04T18:50:25.573Z,1.00
2022-09-04T18:50:35.603Z,1.00
2022-09-04T18:51:20.753Z,1.00
2022-09-04T18:54:06.394Z,1.00
2022-09-04T18:56:36.191Z,1.00
2022-09-04T18:59:24.771Z,1.00
2022-09-04T19:01:52.306Z,1.00
2022-09-04T19:04:43.547Z,1.00
2022-09-04T19:07:32.791Z,4.40
2022-09-04T19:10:23.658Z,17.40
2022-09-04T19:12:50.595Z,29.70
2022-09-04T19:15:27.492Z,38.30
2022-09-04T19:18:09.598Z,66.30
2022-09-04T19:20:52.745Z,94.80
2022-09-04T19:23:35.338Z,97.50
2022-09-04T19:26:11.413Z,99.90
2022-09-04T19:28:54.176Z,99.90
2022-09-04T19:31:48.417Z,99.90
2022-09-04T19:34:37.223Z,99.90
2022-09-04T19:38:04.375Z,99.90
2022-09-04T19:45:57.330Z,99.90
2022-09-04T19:46:25.653Z,99.90
2022-09-04T19:46:37.161Z,99.90
2022-09-04T19:52:40.444Z,99.90
2022-09-04T19:53:29.946Z,99.90
2022-09-04T19:55:25.190Z,99.90
2022-09-04T19:58:11.392Z,99.90
2022-09-04T20:00:59.438Z,1.00
2022-09-04T20:04:10.050Z,1.00
2022-09-04T20:06:49.147Z,1.00
2022-09-04T20:09:33.093Z,1.00
2022-09-04T20:12:21.597Z,1.00
2022-09-04T20:14:55.287Z,1.00
2022-09-04T20:17:28.058Z,1.00
2022-09-04T20:20:00.843Z,1.00
2022-09-04T20:22:37.389Z,1.00
2022-09-04T20:25:07.437Z,1.00
2022-09-04T20:27:46.654Z,1.00
2022-09-04T20:30:19.575Z,1.00
2022-09-04T20:33:11.857Z,1.00
2022-09-04T20:35:51.104Z,1.00
2022-09-04T20:38:37.357Z,1.00
2022-09-04T20:41:44.043Z,1.00
2022-09-04T20:44:25.567Z,1.00
2022-09-04T20:52:44.079Z,1.00
2022-09-04T20:52:55.063Z,1.00
2022-09-04T20:53:19.659Z,74.40
2022-09-04T20:57:37.387Z,96.60
2022-09-04T21:03:07.474Z,99.90
2022-09-04T21:03:17.246Z,99.90
2022-09-04T21:05:32.706Z,99.90
2022-09-04T21:08:21.132Z,99.90
2022-09-04T21:11:01.948Z,99.90
2022-09-04T21:13:38.346Z,1.00
2022-09-04T21:16:28.391Z,1.00
2022-09-04T21:19:29.165Z,1.00
2022-09-04T21:22:28.965Z,1.00
2022-09-04T21:25:18.353Z,1.00
2022-09-04T21:27:48.539Z,1.00
2022-09-04T21:30:37.541Z,1.00
2022-09-04T21:33:36.713Z,1.00
2022-09-04T21:36:30.790Z,68.20
2022-09-04T21:39:09.895Z,99.90
2022-09-04T21:41:43.089Z,21.50
2022-09-04T21:44:54.338Z,44.60
2022-09-04T21:47:50.239Z,99.90
2022-09-04T21:50:45.029Z,99.90
2022-09-04T21:53:52.723Z,99.90
2022-09-04T22:02:25.766Z,99.90
2022-09-04T22:02:45.890Z,99.90
2022-09-04T22:02:57.683Z,1.00
2022-09-04T22:05:46.872Z,1.00
2022-09-04T22:13:27.026Z,99.90
2022-09-04T22:13:42.098Z,99.90
2022-09-04T22:15:05.874Z,99.90
2022-09-04T22:17:35.895Z,68.70
2022-09-04T22:20:21.438Z,99.90
2022-09-04T22:23:17.516Z,99.90
2022-09-04T22:26:09.163Z,1.00
2022-09-04T22:29:30.325Z,99.90
2022-09-04T22:32:46.873Z,99.90
2022-09-04T22:35:35.722Z,1.00
2022-09-04T22:38:34.499Z,13.90
2022-09-04T22:41:39.425Z,41.60
2022-09-04T22:44:48.445Z,99.90
2022-09-04T22:47:27.390Z,1.00
2022-09-04T22:50:00.683Z,1.00
2022-09-04T22:53:03.944Z,1.00
2022-09-04T22:55:40.547Z,99.90
2022-09-04T22:58:35.077Z,99.90
2022-09-04T23:01:31.300Z,99.90
2022-09-04T23:04:05.847Z,1.00
2022-09-04T23:13:48.888Z,1.00
2022-09-04T23:13:54.218Z,1.00
2022-09-04T23:13:59.759Z,99.90
2022-09-04T23:16:11.740Z,1.00
2022-09-04T23:24:10.090Z,1.00
2022-09-04T23:26:37.041Z,1.00
2022-09-04T23:26:44.302Z,1.00
2022-09-04T23:28:51.820Z,55.80
2022-09-04T23:31:37.574Z,1.00
2022-09-04T23:34:07.455Z,1.00
2022-09-04T23:36:57.360Z,1.00
2022-09-04T23:40:03.334Z,1.00
2022-09-04T23:43:08.005Z,1.00
2022-09-04T23:46:08.286Z,1.00
2022-09-04T23:48:38.113Z,1.00
2022-09-04T23:51:33.204Z,1.00
2022-09-04T23:54:45.959Z,99.90
2022-09-04T23:57:38.511Z,1.00
